עמוד ראשי
METAR-TAF:

METAR-TAF

שדות תעופה :

כווית סיטי, כווית

קו רוחב: 29-13N, קו אורך: 047-59E, גובה: 55מטר

תצפית מזג אוויר נוכחית

הדו"ח נערך לפני 1 שעות ו 19דקות, בשעה 22:00 UTC
רוח 5קשר מכיוון מערב/צפון-מערב
טמפרטורת 36 צלסיוס
לחות 18%
לחץ 997 hPa
ראות 10 קילומטר או יותר
ללא עננים שבסיסם נמוך מ 5000 רגל או קומולונימבוס

METAR: OKKK 222200Z 29005KT CAVOK 36/08 Q0997 NOSIG

זמן: 02:19 (23:19 UTC)

תחזית

הדו"ח נערך לפני 6 שעות ו 19דקות, בשעה 17:00 UTC
תחזית בתוקף מ 22 ב 18 UTC עד 23 ב 24 UTC
רוח 8קשר מכיוון צפון/צפון-מערב עם משבים עד 18קשר
ראות: 7000מטר

TAF: OKKK 221700Z 2218/2324 34008G18KT 7000 NSC

תצפיות ותחזיות מזג אוויר לגבי יותר מ- 4,000 שדות תעופה ברחבי העולם. דוחות METAR ו- TAF.

התחנות הזמינות מסומנות בנקודות צהובות ואדומות על גבי המפה.

העבר את העכבר לנקודה הצבעונית על מנת לראות את שם התחנה.

לאחר מכן, לחץ כדי לראות את תוכן ואת תחזיות מזג האוויר.

כדי לשנות את המפה: לחץ על הכפתורים הירוקים עם הפלוס השחור כדי להתקרב; על הכפתור הירוק עם המקף כדי להתרחק; או בחיצים הירוקים למפות סמוכות.


METAR-TAF: